Flight Track Log - Related Links

Times and Time Zones

All times are in EDT time to prevent confusion due to time zone crossing. See the RPA3143 flight status page for this flight to view local times or setup timezone preferences in your user account.

Time Position Orientation Groundspeed Altitude Reporting Facility
EDT Latitude Longitude Course Direction KTS MPH feet Rate Location/Type
Tue 06:05:00 AM 40.3428 -79.9295 164° South  Level Estimated
Tue 06:05:24 AM 40.4294 -80.3022 166° South 285 328 5,600  Level Cleveland Center
Tue 06:06:00 AM 40.2616 -79.9849 208° Southwest  Level FlightAware Approximate
Tue 06:06:24 AM 40.3606 -80.2697 160° South 299 344 8,400  Level Cleveland Center
Tue 06:07:00 AM 40.2146 -79.8819 162° South  Level Estimated
Tue 06:07:24 AM 40.2750 -80.2239 158° South 309 356 10,700  Level Cleveland Center
Tue 06:08:00 AM 40.1674 -79.7792 166° South  Level Estimated
Tue 06:08:24 AM 40.1936 -80.1836 159° South 321 369 12,700  Level Cleveland Center
Tue 06:09:00 AM 40.1202 -79.6765 161° South  Level Estimated
Tue 06:09:24 AM 40.0997 -80.1353 159° South 343 395 14,900  Level Cleveland Center
Tue 06:10:00 AM 40.0729 -79.5740 166° South  Level Estimated
Tue 06:10:24 AM 40.0056 -80.0872 159° South 358 412 16,900  Level Cleveland Center
Tue 06:11:24 AM 39.9178 -80.0067 145° Southeast 369 425 18,200 1,250 Climbing Cleveland Center
Tue 06:12:24 AM 39.8358 -79.9100 138° Southeast 384 442 19,400 1,630 Climbing Cleveland Center
Tue 06:14:17 AM 39.6619 -79.7106 139° Southeast 406 467 22,900 1,241 Climbing Washington Center
Tue 06:15:18 AM 39.5758 -79.6086 138° Southeast 417 480 23,000 50 Climbing Washington Center
Tue 06:16:18 AM 39.4875 -79.5069 138° Southeast 422 486 23,000  Level Washington Center
Tue 06:17:19 AM 39.3992 -79.4053 138° Southeast 422 486 23,000  Level Washington Center
Tue 06:18:20 AM 39.3106 -79.3014 138° Southeast 427 491 23,000  Level Washington Center
Tue 06:19:18 AM 39.2450 -79.1964 129° Southeast 434 499 23,000  Level Washington Center
Tue 06:20:19 AM 39.2308 -79.0456 97° East 403 464 23,000  Level Washington Center
Tue 06:21:20 AM 39.2161 -78.9003 97° East 401 461 23,000 -50 Level Washington Center
Tue 06:22:20 AM 39.2033 -78.7550 96° East 401 461 22,900 -1,119 Descending Washington Center
Tue 06:23:18 AM 39.1844 -78.5989 99° East 406 467 20,800 -2,319 Descending Washington Center
Tue 06:24:19 AM 39.1750 -78.4725 95° East 406 467 18,300 -1,916 Descending Washington Center
Tue 06:25:17 AM 39.1553 -78.3325 100° East 400 460 17,000 -650 Descending Washington Center
Tue 06:26:19 AM 39.1228 -78.2028 108° East 388 447 17,000 -197 Level Washington Center
Tue 06:27:19 AM 39.0881 -78.0706 109° East 388 447 16,600 -1,240 Descending Washington Center
Tue 06:28:20 AM 39.0572 -77.9414 107° East 388 447 14,500 -1,983 Descending Washington Center
Tue 06:29:17 AM 39.0261 -77.8253 109° East 356 410 12,700 -1,785 Descending Washington Center
Tue 06:30:21 AM 38.9950 -77.7042 108° East 323 372 10,900 -1,636 Descending Washington Center
Tue 06:31:18 AM 38.9714 -77.6156 109° East 311 358 9,400 -1,286 Descending Washington Center
Tue 06:32:41 AM 38.9500 -77.4667 100° East 281 323 7,900 -1,270 Descending Potomac TRACON
Tue 06:33:35 AM 38.9667 -77.3833 76° East 275 316 6,500 -1,263 Descending Potomac TRACON
Tue 06:34:35 AM 39.0167 -77.3167 46° Northeast 252 290 5,500 -789 Descending Potomac TRACON
Tue 06:35:29 AM 39.0500 -77.2667 49° Northeast 227 261 5,000 -263 Descending Potomac TRACON
Tue 06:36:29 AM 39.0500 -77.2000 90° East 216 249 5,000 -579 Level Potomac TRACON
Tue 06:37:23 AM 39.0000 -77.1500 142° Southeast 207 238 3,900 -1,316 Descending Potomac TRACON
Tue 06:38:23 AM 38.9500 -77.1333 165° South 210 242 2,500 -1,400 Descending Potomac TRACON

Login

Don't have an account? Register now (free) for customized features, flight alerts, and more!